Time;durP1;ratioP1;P1;durP2;ratioP2;P2;SDS_P1;SDS_P2;PMS_P1;PMS_P2;Temp;Humidity;BMP_temperature;BMP_pressure;BME280_temperature;BME280_humidity;BME280_pressure;Samples;Min_cycle;Max_cycle;Signal;HPM_P1;HPM_P2
2022/09/09 00:02:27;;;;;;;1.87;1.43;;;;;;;;;;5013287;28;20183;-68
2022/09/09 00:05:12;;;;;;;3.70;2.00;;;;;;;;;;5013315;28;20252;-67
2022/09/09 00:07:44;;;;;;;3.60;1.60;;;;;;;;;;5013301;28;20172;-68
2022/09/09 00:10:26;;;;;;;2.20;1.77;;;;;;;;;;5013982;28;20180;-68
2022/09/09 00:13:01;;;;;;;4.03;1.87;;;;;;;;;;5012016;28;20184;-67
2022/09/09 00:15:36;;;;;;;3.20;1.97;;;;;;;;;;5013421;28;20203;-68
2022/09/09 00:18:09;;;;;;;5.87;2.00;;;;;;;;;;5013758;28;20310;-68
2022/09/09 00:20:45;;;;;;;4.23;2.40;;;;;;;;;;5013730;28;20160;-68
2022/09/09 00:23:26;;;;;;;3.83;1.97;;;;;;;;;;5013160;28;20175;-68
2022/09/09 00:25:58;;;;;;;4.77;2.30;;;;;;;;;;5013358;28;20180;-68
2022/09/09 00:28:26;;;;;;;6.13;2.17;;;;;;;;;;5011910;28;20273;-67
2022/09/09 00:30:52;;;;;;;2.97;1.77;;;;;;;;;;5013240;28;20234;-70
2022/09/09 00:33:22;;;;;;;4.67;2.20;;;;;;;;;;5013450;28;20654;-68
2022/09/09 00:35:49;;;;;;;2.77;1.90;;;;;;;;;;5016732;28;20679;-68
2022/09/09 00:38:25;;;;;;;5.70;1.90;;;;;;;;;;5015431;28;20541;-69
2022/09/09 00:40:53;;;;;;;2.87;1.90;;;;;;;;;;5015354;28;20608;-69
2022/09/09 00:43:30;;;;;;;2.33;1.80;;;;;;;;;;5015253;28;20176;-68
2022/09/09 00:46:02;;;;;;;3.17;1.90;;;;;;;;;;5016642;28;20549;-68
2022/09/09 00:48:40;;;;;;;7.80;2.20;;;;;;;;;;5016772;28;20247;-69
2022/09/09 00:51:12;;;;;;;4.13;1.73;;;;;;;;;;5016708;28;20168;-69
2022/09/09 00:53:56;;;;;;;4.93;2.10;;;;;;;;;;5016784;28;20204;-68
2022/09/09 00:56:26;;;;;;;3.67;1.90;;;;;;;;;;5014914;28;20215;-69
2022/09/09 00:59:06;;;;;;;5.17;2.07;;;;;;;;;;5016161;28;20191;-68
2022/09/09 01:01:32;;;;;;;5.40;2.03;;;;;;;;;;5014968;28;20230;-69
2022/09/09 01:03:59;;;;;;;5.13;1.83;;;;;;;;;;5016037;28;20542;-68
2022/09/09 01:06:25;;;;;;;3.60;2.20;;;;;;;;;;5015024;28;20619;-69
2022/09/09 01:09:10;;;;;;;3.87;1.93;;;;;;;;;;5016028;28;20267;-68
2022/09/09 01:11:48;;;;;;;4.23;2.00;;;;;;;;;;5016207;28;20219;-69
2022/09/09 01:14:33;;;;;;;5.00;2.00;;;;;;;;;;5014728;28;20582;-68
2022/09/09 01:17:02;;;;;;;3.90;1.93;;;;;;;;;;5014811;28;20190;-68
2022/09/09 01:19:39;;;;;;;3.23;2.07;;;;;;;;;;5016181;28;20176;-68
2022/09/09 01:22:09;;;;;;;3.70;2.40;;;;;;;;;;5014948;28;20176;-68
2022/09/09 01:24:56;;;;;;;9.90;4.00;;;;;;;;;;5015071;28;20204;-68
2022/09/09 01:27:22;;;;;;;4.30;3.77;;;;;;;;;;5015880;28;20259;-69
2022/09/09 01:29:48;;;;;;;6.83;5.50;;;;;;;;;;5015693;28;20176;-69
2022/09/09 01:32:33;;;;;;;7.73;6.20;;;;;;;;;;5015500;28;20553;-68
2022/09/09 01:34:59;;;;;;;8.13;5.77;;;;;;;;;;5015336;28;20695;-68
2022/09/09 01:37:25;;;;;;;9.53;8.53;;;;;;;;;;5014086;28;20238;-68
2022/09/09 01:39:51;;;;;;;11.43;8.87;;;;;;;;;;5015383;28;20605;-69
2022/09/09 01:42:18;;;;;;;13.20;9.97;;;;;;;;;;5015476;28;20207;-68
2022/09/09 01:44:44;;;;;;;13.97;11.27;;;;;;;;;;5015051;28;20194;-70
2022/09/09 01:47:10;;;;;;;13.47;11.30;;;;;;;;;;5013981;28;20172;-69
2022/09/09 01:49:36;;;;;;;14.63;12.23;;;;;;;;;;5015582;28;20175;-68
2022/09/09 01:52:02;;;;;;;16.00;13.83;;;;;;;;;;5015402;28;20705;-68
2022/09/09 01:54:31;;;;;;;17.03;13.63;;;;;;;;;;5015169;28;20339;-69
2022/09/09 01:57:05;;;;;;;14.70;11.40;;;;;;;;;;5015104;28;20214;-69
2022/09/09 01:59:39;;;;;;;13.43;10.50;;;;;;;;;;5015182;28;20159;-68
2022/09/09 02:02:09;;;;;;;12.20;7.97;;;;;;;;;;5013870;28;20186;-69
2022/09/09 02:04:40;;;;;;;8.40;5.97;;;;;;;;;;5015072;28;20244;-69
2022/09/09 02:07:12;;;;;;;7.33;4.43;;;;;;;;;;5014811;28;20648;-68
2022/09/09 02:09:41;;;;;;;6.23;4.10;;;;;;;;;;5015182;28;20222;-68
2022/09/09 02:12:14;;;;;;;5.93;3.50;;;;;;;;;;5013583;28;20230;-68
2022/09/09 02:14:42;;;;;;;7.10;3.40;;;;;;;;;;5014905;28;20196;-68
2022/09/09 02:17:09;;;;;;;5.43;3.47;;;;;;;;;;5014694;28;20172;-69
2022/09/09 02:19:38;;;;;;;8.90;3.07;;;;;;;;;;5014656;28;20259;-68
2022/09/09 02:22:04;;;;;;;5.70;3.30;;;;;;;;;;5013301;28;20179;-69
2022/09/09 02:24:32;;;;;;;9.10;3.67;;;;;;;;;;5014703;28;20196;-68
2022/09/09 02:27:00;;;;;;;3.67;2.87;;;;;;;;;;5014649;28;20179;-69
2022/09/09 02:29:28;;;;;;;7.60;3.40;;;;;;;;;;5014466;28;20178;-68
2022/09/09 02:31:56;;;;;;;6.00;3.30;;;;;;;;;;5014383;28;20636;-69
2022/09/09 02:34:24;;;;;;;6.37;3.17;;;;;;;;;;5012904;28;20227;-68
2022/09/09 02:36:51;;;;;;;5.93;2.80;;;;;;;;;;5014880;28;20242;-69
2022/09/09 02:39:17;;;;;;;6.00;3.10;;;;;;;;;;5013109;28;20203;-68
2022/09/09 02:41:43;;;;;;;4.77;3.00;;;;;;;;;;5013050;28;20274;-68
2022/09/09 02:44:11;;;;;;;10.83;3.30;;;;;;;;;;5014248;28;20674;-69
2022/09/09 02:46:53;;;;;;;7.20;3.63;;;;;;;;;;5014219;28;20528;-68
2022/09/09 02:49:34;;;;;;;5.67;2.73;;;;;;;;;;5014361;28;20298;-68
2022/09/09 02:52:00;;;;;;;6.20;2.43;;;;;;;;;;5014656;28;20179;-68
2022/09/09 02:54:31;;;;;;;5.13;2.90;;;;;;;;;;5012776;28;20203;-68
2022/09/09 02:57:02;;;;;;;6.97;2.63;;;;;;;;;;5013631;28;20267;-69
2022/09/09 02:59:29;;;;;;;6.47;2.47;;;;;;;;;;5014530;28;20161;-68
2022/09/09 03:01:55;;;;;;;5.03;2.70;;;;;;;;;;5012737;28;20518;-69
2022/09/09 03:04:21;;;;;;;5.33;2.60;;;;;;;;;;5013830;28;20664;-69
2022/09/09 03:06:47;;;;;;;8.77;2.80;;;;;;;;;;5013980;28;20560;-68
2022/09/09 03:09:12;;;;;;;6.20;3.20;;;;;;;;;;5013837;28;20187;-68
2022/09/09 03:11:38;;;;;;;8.53;3.17;;;;;;;;;;5013919;28;20180;-68
2022/09/09 03:14:05;;;;;;;6.47;3.00;;;;;;;;;;5013596;28;20727;-68
2022/09/09 03:16:32;;;;;;;8.13;3.00;;;;;;;;;;5013720;28;20210;-68
2022/09/09 03:18:58;;;;;;;7.20;3.20;;;;;;;;;;5014271;28;20168;-68
2022/09/09 03:21:24;;;;;;;8.93;3.10;;;;;;;;;;5012413;28;20218;-68
2022/09/09 03:23:50;;;;;;;7.20;3.00;;;;;;;;;;5012426;28;20212;-68
2022/09/09 03:26:16;;;;;;;7.33;3.43;;;;;;;;;;5013633;28;20187;-68
2022/09/09 03:28:43;;;;;;;7.30;3.23;;;;;;;;;;5013926;28;20180;-68
2022/09/09 03:31:10;;;;;;;5.27;2.77;;;;;;;;;;5013722;28;20258;-68
2022/09/09 03:33:36;;;;;;;5.53;2.67;;;;;;;;;;5013597;28;20186;-68
2022/09/09 03:36:03;;;;;;;6.27;2.90;;;;;;;;;;5013761;28;20200;-69
2022/09/09 03:38:29;;;;;;;6.07;2.97;;;;;;;;;;5013487;28;20183;-68
2022/09/09 03:40:57;;;;;;;7.53;2.90;;;;;;;;;;5012319;28;20172;-68
2022/09/09 03:43:23;;;;;;;6.03;2.70;;;;;;;;;;5013438;28;20226;-68
2022/09/09 03:45:49;;;;;;;5.27;2.33;;;;;;;;;;5013440;28;20188;-68
2022/09/09 03:48:16;;;;;;;7.83;2.87;;;;;;;;;;5013255;28;20184;-68
2022/09/09 03:50:50;;;;;;;6.47;2.30;;;;;;;;;;5013314;28;20180;-68
2022/09/09 03:53:16;;;;;;;7.73;2.97;;;;;;;;;;5013630;28;20684;-68
2022/09/09 03:55:50;;;;;;;9.63;2.93;;;;;;;;;;5013456;28;20594;-68
2022/09/09 03:58:20;;;;;;;6.97;2.60;;;;;;;;;;5014047;28;20161;-68
2022/09/09 04:00:59;;;;;;;9.30;2.70;;;;;;;;;;5012048;28;20275;-69
2022/09/09 04:03:26;;;;;;;6.27;2.60;;;;;;;;;;5011905;28;20175;-68
2022/09/09 04:05:52;;;;;;;6.17;2.10;;;;;;;;;;5012006;28;20285;-70
2022/09/09 04:08:19;;;;;;;5.17;2.67;;;;;;;;;;5015322;28;20191;-69
2022/09/09 04:10:46;;;;;;;4.60;2.60;;;;;;;;;;5016089;28;20727;-68
2022/09/09 04:13:15;;;;;;;5.27;2.50;;;;;;;;;;5016080;28;20184;-69
2022/09/09 04:15:42;;;;;;;8.67;2.60;;;;;;;;;;5016891;28;20207;-68
2022/09/09 04:18:08;;;;;;;3.40;2.30;;;;;;;;;;5017376;28;20188;-68
2022/09/09 04:20:34;;;;;;;4.07;2.30;;;;;;;;;;5015878;28;20249;-68
2022/09/09 04:23:00;;;;;;;8.17;2.70;;;;;;;;;;5017177;28;20176;-69
2022/09/09 04:25:26;;;;;;;11.43;2.37;;;;;;;;;;5016965;28;20678;-68
2022/09/09 04:27:56;;;;;;;8.73;2.73;;;;;;;;;;5015722;28;20324;-68
2022/09/09 04:30:22;;;;;;;6.23;2.70;;;;;;;;;;5015712;28;20274;-68
2022/09/09 04:32:48;;;;;;;11.33;2.80;;;;;;;;;;5015321;28;20564;-68
2022/09/09 04:35:14;;;;;;;7.03;2.37;;;;;;;;;;5016206;28;20219;-69
2022/09/09 04:37:40;;;;;;;6.63;2.50;;;;;;;;;;5015423;28;20233;-69
2022/09/09 04:40:09;;;;;;;6.70;2.87;;;;;;;;;;5016544;28;20168;-69
2022/09/09 04:42:36;;;;;;;5.40;2.40;;;;;;;;;;5015359;28;20680;-68
2022/09/09 04:45:02;;;;;;;7.07;2.50;;;;;;;;;;5016419;28;20210;-68
2022/09/09 04:47:28;;;;;;;8.27;3.03;;;;;;;;;;5014943;28;20184;-69
2022/09/09 04:49:54;;;;;;;7.90;3.13;;;;;;;;;;5016599;28;20191;-68
2022/09/09 04:52:20;;;;;;;9.17;3.20;;;;;;;;;;5016112;28;20234;-68
2022/09/09 04:54:46;;;;;;;8.30;3.03;;;;;;;;;;5014758;28;20290;-69
2022/09/09 04:57:12;;;;;;;5.00;2.77;;;;;;;;;;5016525;28;20168;-68
2022/09/09 04:59:39;;;;;;;8.60;2.63;;;;;;;;;;5014605;28;20188;-69
2022/09/09 05:02:05;;;;;;;10.13;3.30;;;;;;;;;;5014657;28;20183;-68
2022/09/09 05:04:31;;;;;;;9.63;3.30;;;;;;;;;;5014517;28;20200;-69
2022/09/09 05:06:57;;;;;;;10.33;3.33;;;;;;;;;;5015919;28;20215;-71
2022/09/09 05:09:23;;;;;;;8.03;3.10;;;;;;;;;;5015948;28;20180;-69
2022/09/09 05:11:49;;;;;;;7.53;3.63;;;;;;;;;;5014529;28;20187;-69
2022/09/09 05:14:15;;;;;;;8.20;3.47;;;;;;;;;;5015833;28;20204;-69
2022/09/09 05:16:42;;;;;;;10.10;3.40;;;;;;;;;;5014534;28;20257;-69
2022/09/09 05:19:09;;;;;;;6.53;2.40;;;;;;;;;;5015331;28;20168;-68
2022/09/09 05:21:35;;;;;;;10.77;3.27;;;;;;;;;;5014307;28;20179;-69
2022/09/09 05:24:01;;;;;;;8.40;2.90;;;;;;;;;;5014326;28;20235;-69
2022/09/09 05:26:29;;;;;;;7.97;2.83;;;;;;;;;;5015606;28;20668;-69
2022/09/09 05:28:55;;;;;;;7.63;2.90;;;;;;;;;;5015833;28;20653;-69
2022/09/09 05:31:21;;;;;;;13.23;3.63;;;;;;;;;;5015509;28;20218;-69
2022/09/09 05:33:47;;;;;;;11.03;3.50;;;;;;;;;;5015298;28;20219;-68
2022/09/09 05:36:14;;;;;;;12.67;3.17;;;;;;;;;;5014129;28;20218;-69
2022/09/09 05:38:41;;;;;;;13.83;3.63;;;;;;;;;;5015488;28;20187;-68
2022/09/09 05:41:07;;;;;;;10.53;3.53;;;;;;;;;;5014080;28;20553;-69
2022/09/09 05:43:35;;;;;;;10.50;3.30;;;;;;;;;;5015523;28;20710;-68
2022/09/09 05:46:11;;;;;;;12.30;3.30;;;;;;;;;;5013858;28;20755;-69
2022/09/09 05:48:38;;;;;;;10.70;3.07;;;;;;;;;;5015287;28;20211;-67
2022/09/09 05:51:06;;;;;;;14.47;3.60;;;;;;;;;;5013866;28;20253;-69
2022/09/09 05:53:34;;;;;;;12.80;3.40;;;;;;;;;;5014998;28;20230;-69
2022/09/09 05:56:03;;;;;;;15.90;3.80;;;;;;;;;;5015407;28;20204;-69
2022/09/09 05:58:29;;;;;;;10.83;3.17;;;;;;;;;;5013930;28;20186;-69
2022/09/09 06:01:00;;;;;;;12.73;4.00;;;;;;;;;;5015207;28;20258;-69
2022/09/09 06:03:26;;;;;;;4.07;2.83;;;;;;;;;;5013587;28;20222;-69
2022/09/09 06:05:59;;;;;;;7.53;2.97;;;;;;;;;;5013694;28;20188;-69
2022/09/09 06:08:25;;;;;;;10.13;3.97;;;;;;;;;;5014874;28;20640;-69
2022/09/09 06:10:52;;;;;;;9.67;3.57;;;;;;;;;;5015023;28;20182;-69
2022/09/09 06:13:18;;;;;;;9.23;3.30;;;;;;;;;;5015179;28;20176;-70
2022/09/09 06:15:53;;;;;;;11.77;3.20;;;;;;;;;;5013295;28;20223;-69
2022/09/09 06:18:19;;;;;;;8.43;2.90;;;;;;;;;;5014994;28;20182;-68
2022/09/09 06:21:00;;;;;;;9.63;3.30;;;;;;;;;;5013581;28;20266;-69
2022/09/09 06:23:26;;;;;;;9.67;3.37;;;;;;;;;;5015263;28;20188;-68
2022/09/09 06:25:52;;;;;;;7.23;2.80;;;;;;;;;;5018837;28;20179;-69
2022/09/09 06:28:19;;;;;;;10.53;3.10;;;;;;;;;;5019371;28;20556;-70
2022/09/09 06:30:45;;;;;;;7.87;3.43;;;;;;;;;;5019773;28;20208;-69
2022/09/09 06:33:11;;;;;;;12.93;2.97;;;;;;;;;;5018969;28;20648;-69
2022/09/09 06:35:37;;;;;;;9.07;2.90;;;;;;;;;;5017609;28;20279;-69
2022/09/09 06:38:03;;;;;;;9.03;2.70;;;;;;;;;;5015436;28;20187;-69
2022/09/09 06:40:30;;;;;;;7.30;2.80;;;;;;;;;;5014361;28;20577;-69
2022/09/09 06:42:59;;;;;;;10.27;2.80;;;;;;;;;;5014203;28;20268;-69
2022/09/09 06:45:25;;;;;;;10.60;2.90;;;;;;;;;;5015421;28;20195;-69
2022/09/09 06:47:52;;;;;;;12.60;2.70;;;;;;;;;;5015315;28;20180;-68
2022/09/09 06:50:17;;;;;;;10.20;3.13;;;;;;;;;;5014915;28;20271;-69
2022/09/09 06:52:47;;;;;;;11.57;2.83;;;;;;;;;;5014443;28;20241;-69
2022/09/09 06:55:15;;;;;;;7.47;3.03;;;;;;;;;;5012718;28;20212;-69
2022/09/09 06:57:41;;;;;;;5.67;2.30;;;;;;;;;;5012819;28;20180;-70
2022/09/09 07:00:07;;;;;;;6.67;2.37;;;;;;;;;;5012734;28;20183;-69
2022/09/09 07:02:38;;;;;;;8.43;2.33;;;;;;;;;;5014552;28;20183;-70
2022/09/09 07:05:04;;;;;;;13.37;3.30;;;;;;;;;;5012728;28;20195;-70
2022/09/09 07:07:30;;;;;;;4.03;2.23;;;;;;;;;;5014292;28;20190;-69
2022/09/09 07:09:56;;;;;;;5.30;2.50;;;;;;;;;;5014234;28;20180;-69
2022/09/09 07:12:22;;;;;;;11.00;2.60;;;;;;;;;;5013760;28;20180;-69
2022/09/09 07:14:49;;;;;;;6.73;2.40;;;;;;;;;;5012477;28;20208;-69
2022/09/09 07:17:15;;;;;;;6.70;2.27;;;;;;;;;;5012463;28;20717;-69
2022/09/09 07:19:41;;;;;;;9.63;2.93;;;;;;;;;;5012480;28;20259;-69
2022/09/09 07:22:07;;;;;;;11.10;2.80;;;;;;;;;;5012479;28;20180;-70
2022/09/09 07:24:33;;;;;;;4.73;2.00;;;;;;;;;;5012526;28;20206;-70
2022/09/09 07:26:59;;;;;;;5.97;2.10;;;;;;;;;;5013687;28;20176;-70
2022/09/09 07:29:25;;;;;;;11.30;3.60;;;;;;;;;;5012303;28;20238;-69
2022/09/09 07:31:51;;;;;;;8.47;2.53;;;;;;;;;;5012440;28;20180;-70
2022/09/09 07:34:18;;;;;;;7.93;2.70;;;;;;;;;;5012291;28;20279;-69
2022/09/09 07:36:44;;;;;;;6.80;2.40;;;;;;;;;;5012368;28;20245;-70
2022/09/09 07:39:12;;;;;;;7.73;2.37;;;;;;;;;;5013658;28;20218;-69
2022/09/09 07:41:42;;;;;;;8.43;2.47;;;;;;;;;;5013885;28;20184;-69
2022/09/09 07:44:10;;;;;;;7.23;1.93;;;;;;;;;;5019792;28;20206;-69
2022/09/09 07:46:39;;;;;;;5.53;2.03;;;;;;;;;;5018608;28;20186;-69
2022/09/09 07:49:05;;;;;;;7.97;2.37;;;;;;;;;;5018618;28;20198;-69
2022/09/09 07:51:32;;;;;;;9.27;2.73;;;;;;;;;;5018746;28;20205;-69
2022/09/09 07:53:59;;;;;;;6.93;2.07;;;;;;;;;;5018574;28;20738;-70
2022/09/09 07:56:26;;;;;;;5.50;2.20;;;;;;;;;;5018435;28;20213;-69
2022/09/09 07:58:53;;;;;;;7.93;1.97;;;;;;;;;;5019678;28;20172;-68
2022/09/09 08:01:24;;;;;;;8.20;2.83;;;;;;;;;;5019659;28;20182;-69
2022/09/09 08:03:54;;;;;;;10.03;2.10;;;;;;;;;;5019947;28;20191;-69
2022/09/09 08:06:21;;;;;;;7.10;2.27;;;;;;;;;;5019878;28;20207;-69
2022/09/09 08:08:50;;;;;;;5.20;2.10;;;;;;;;;;5019803;28;20263;-68
2022/09/09 08:11:16;;;;;;;7.67;2.27;;;;;;;;;;5019874;28;20660;-70
2022/09/09 08:13:43;;;;;;;6.23;2.20;;;;;;;;;;5019443;28;20203;-69
2022/09/09 08:16:09;;;;;;;5.63;2.10;;;;;;;;;;5019405;28;20575;-69
2022/09/09 08:18:35;;;;;;;6.30;2.40;;;;;;;;;;5019742;28;20175;-70
2022/09/09 08:21:11;;;;;;;5.60;2.13;;;;;;;;;;5019560;28;20179;-70
2022/09/09 08:23:38;;;;;;;5.73;2.37;;;;;;;;;;5019547;28;20287;-69
2022/09/09 08:26:05;;;;;;;6.17;2.10;;;;;;;;;;5018278;28;20184;-70
2022/09/09 08:28:31;;;;;;;7.17;2.00;;;;;;;;;;5019563;28;20187;-70
2022/09/09 08:30:57;;;;;;;7.17;2.20;;;;;;;;;;5019452;28;20237;-71
2022/09/09 08:33:23;;;;;;;8.73;2.23;;;;;;;;;;5018294;28;20186;-68
2022/09/09 08:35:52;;;;;;;6.73;2.53;;;;;;;;;;5019576;28;20203;-70
2022/09/09 08:38:18;;;;;;;8.33;2.77;;;;;;;;;;5019636;28;20176;-69
2022/09/09 08:40:49;;;;;;;7.27;2.10;;;;;;;;;;5018147;28;20190;-69
2022/09/09 08:43:17;;;;;;;7.97;2.13;;;;;;;;;;5019809;28;20210;-70
2022/09/09 08:46:06;;;;;;;7.33;2.20;;;;;;;;;;5019508;28;20675;-69
2022/09/09 08:48:49;;;;;;;10.13;1.93;;;;;;;;;;5019710;28;20699;-69
2022/09/09 08:51:15;;;;;;;5.43;2.27;;;;;;;;;;5018045;28;20182;-69
2022/09/09 08:53:44;;;;;;;5.40;2.17;;;;;;;;;;5016325;28;20644;-69
2022/09/09 08:56:13;;;;;;;7.13;2.20;;;;;;;;;;5016628;28;20579;-69
2022/09/09 08:58:44;;;;;;;5.53;2.40;;;;;;;;;;5016075;28;20176;-70
2022/09/09 09:01:10;;;;;;;5.43;2.00;;;;;;;;;;5014856;28;20558;-69
2022/09/09 09:03:50;;;;;;;4.33;2.00;;;;;;;;;;5015972;28;20660;-69
2022/09/09 09:06:16;;;;;;;9.50;2.47;;;;;;;;;;5014620;28;20283;-69
2022/09/09 09:08:54;;;;;;;6.67;2.10;;;;;;;;;;5015915;28;20254;-69
2022/09/09 09:11:20;;;;;;;5.20;1.90;;;;;;;;;;5015877;28;20537;-69
2022/09/09 09:13:55;;;;;;;6.37;2.20;;;;;;;;;;5014448;28;20203;-69
2022/09/09 09:16:21;;;;;;;8.07;2.63;;;;;;;;;;5014508;28;20211;-68
2022/09/09 09:18:47;;;;;;;9.20;2.10;;;;;;;;;;5015748;28;20218;-68
2022/09/09 09:21:18;;;;;;;5.73;2.00;;;;;;;;;;5015612;28;20172;-68
2022/09/09 09:23:48;;;;;;;7.80;2.20;;;;;;;;;;5015721;28;20230;-68
2022/09/09 09:26:15;;;;;;;3.73;1.73;;;;;;;;;;5015566;28;20176;-69
2022/09/09 09:28:41;;;;;;;4.87;1.97;;;;;;;;;;5016101;28;20238;-69
2022/09/09 09:31:08;;;;;;;5.63;2.30;;;;;;;;;;5015545;28;20551;-69
2022/09/09 09:33:52;;;;;;;6.60;2.10;;;;;;;;;;5015561;28;20225;-69
2022/09/09 09:36:19;;;;;;;6.27;2.27;;;;;;;;;;5015803;28;20192;-69
2022/09/09 09:39:00;;;;;;;8.07;2.13;;;;;;;;;;5015367;28;20180;-69
2022/09/09 09:41:36;;;;;;;8.17;1.80;;;;;;;;;;5014102;28;20555;-69
2022/09/09 09:44:04;;;;;;;8.03;1.87;;;;;;;;;;5015438;28;20196;-68
2022/09/09 09:46:30;;;;;;;5.80;1.90;;;;;;;;;;5014016;28;20270;-69
2022/09/09 09:49:00;;;;;;;7.07;1.90;;;;;;;;;;5015240;28;20255;-68
2022/09/09 09:51:27;;;;;;;5.37;2.07;;;;;;;;;;5013848;28;20683;-68
2022/09/09 09:53:53;;;;;;;9.43;2.13;;;;;;;;;;5015116;28;20203;-68
2022/09/09 09:56:28;;;;;;;8.93;1.90;;;;;;;;;;5015463;28;20278;-68
2022/09/09 09:58:55;;;;;;;5.00;1.90;;;;;;;;;;5015431;28;20243;-69
2022/09/09 10:01:24;;;;;;;5.27;1.70;;;;;;;;;;5014955;28;20176;-69
2022/09/09 10:03:54;;;;;;;2.70;1.73;;;;;;;;;;5015458;28;20570;-69
2022/09/09 10:06:30;;;;;;;10.80;1.97;;;;;;;;;;5014795;28;20184;-69
2022/09/09 10:08:56;;;;;;;9.20;1.90;;;;;;;;;;5015039;28;20218;-68
2022/09/09 10:11:40;;;;;;;4.13;1.80;;;;;;;;;;5013585;28;20180;-69
2022/09/09 10:14:24;;;;;;;7.33;2.10;;;;;;;;;;5015039;28;20196;-69
2022/09/09 10:16:56;;;;;;;7.37;1.90;;;;;;;;;;5013412;28;20633;-69
2022/09/09 10:19:31;;;;;;;9.60;2.07;;;;;;;;;;5014671;28;20214;-68
2022/09/09 10:22:15;;;;;;;5.90;1.77;;;;;;;;;;5014858;28;20155;-69
2022/09/09 10:24:56;;;;;;;5.47;1.83;;;;;;;;;;5014971;28;20200;-69
2022/09/09 10:27:41;;;;;;;3.37;1.70;;;;;;;;;;5013346;28;20177;-69
2022/09/09 10:30:12;;;;;;;8.83;2.23;;;;;;;;;;5013126;28;20186;-69
2022/09/09 10:32:41;;;;;;;6.27;1.77;;;;;;;;;;5014715;28;20212;-69
2022/09/09 10:35:13;;;;;;;4.97;1.57;;;;;;;;;;5014248;28;20257;-69
2022/09/09 10:37:48;;;;;;;4.13;1.63;;;;;;;;;;5014358;28;20192;-68
2022/09/09 10:40:18;;;;;;;4.77;1.90;;;;;;;;;;5014532;28;20591;-69
2022/09/09 10:42:44;;;;;;;6.57;1.90;;;;;;;;;;5014255;28;20176;-69
2022/09/09 10:45:18;;;;;;;4.67;1.80;;;;;;;;;;5014142;28;20254;-69
2022/09/09 10:47:57;;;;;;;5.83;1.80;;;;;;;;;;5014709;28;20187;-67
2022/09/09 10:50:35;;;;;;;3.00;1.60;;;;;;;;;;5014348;28;20694;-69
2022/09/09 10:53:20;;;;;;;5.90;1.87;;;;;;;;;;5014348;28;20194;-69
2022/09/09 10:55:50;;;;;;;4.57;1.50;;;;;;;;;;5013920;28;20242;-68
2022/09/09 10:58:29;;;;;;;5.77;1.70;;;;;;;;;;5014585;28;20153;-68
2022/09/09 11:00:57;;;;;;;3.57;1.67;;;;;;;;;;5013919;28;20591;-69
2022/09/09 11:03:26;;;;;;;6.60;1.80;;;;;;;;;;5013026;28;20192;-66
2022/09/09 11:05:54;;;;;;;5.43;1.67;;;;;;;;;;5017864;28;20191;-68
2022/09/09 11:08:34;;;;;;;7.90;2.20;;;;;;;;;;5012620;28;20180;-68
2022/09/09 11:11:04;;;;;;;4.67;1.70;;;;;;;;;;5014016;28;20180;-69
2022/09/09 11:13:31;;;;;;;3.67;1.50;;;;;;;;;;5013795;28;20262;-68
2022/09/09 11:16:00;;;;;;;3.67;1.73;;;;;;;;;;5036706;23;20248;-67
2022/09/09 11:18:29;;;;;;;3.30;1.70;;;;;;;;;;5012492;28;20176;-67
2022/09/09 11:20:59;;;;;;;4.37;1.83;;;;;;;;;;5012966;28;20270;-67
2022/09/09 11:23:27;;;;;;;5.40;1.70;;;;;;;;;;5012441;28;20168;-67
2022/09/09 11:25:57;;;;;;;3.90;1.70;;;;;;;;;;5013797;28;20207;-68
2022/09/09 11:28:23;;;;;;;6.87;1.93;;;;;;;;;;5014194;28;20207;-66
2022/09/09 11:31:08;;;;;;;3.87;1.60;;;;;;;;;;5013716;28;20191;-66
2022/09/09 11:33:34;;;;;;;4.17;1.90;;;;;;;;;;5012339;28;20222;-68
2022/09/09 11:36:19;;;;;;;6.03;1.80;;;;;;;;;;5013643;28;20291;-68
2022/09/09 11:38:46;;;;;;;3.73;1.60;;;;;;;;;;5013524;28;20584;-67
2022/09/09 11:41:13;;;;;;;2.63;1.70;;;;;;;;;;5012207;28;20188;-66
2022/09/09 11:43:39;;;;;;;6.63;1.67;;;;;;;;;;5012162;28;20235;-65
2022/09/09 11:46:07;;;;;;;4.17;1.60;;;;;;;;;;5013378;28;20695;-65
2022/09/09 11:48:38;;;;;;;3.43;1.30;;;;;;;;;;5013346;28;20194;-65
2022/09/09 11:51:08;;;;;;;4.17;1.90;;;;;;;;;;5013552;28;20216;-65
2022/09/09 11:53:54;;;;;;;6.27;1.53;;;;;;;;;;5013307;28;20228;-65
2022/09/09 11:56:34;;;;;;;4.47;1.60;;;;;;;;;;4982606;28;20231;-66
2022/09/09 11:59:03;;;;;;;6.13;1.83;;;;;;;;;;5013164;28;20242;-65
2022/09/09 12:01:30;;;;;;;1.87;1.40;;;;;;;;;;5013164;28;20176;-65
2022/09/09 12:04:05;;;;;;;4.13;1.50;;;;;;;;;;5013647;28;20655;-66
2022/09/09 12:06:32;;;;;;;1.83;1.20;;;;;;;;;;5013473;28;20676;-66
2022/09/09 12:09:10;;;;;;;4.20;1.20;;;;;;;;;;5014041;28;20176;-66
2022/09/09 12:11:37;;;;;;;2.60;1.27;;;;;;;;;;5012010;28;20275;-66
2022/09/09 12:14:03;;;;;;;1.90;1.20;;;;;;;;;;5011832;28;20183;-66
2022/09/09 12:16:38;;;;;;;4.90;1.27;;;;;;;;;;5011719;28;20220;-66
2022/09/09 12:19:15;;;;;;;2.57;1.30;;;;;;;;;;5013071;28;20172;-65
2022/09/09 12:21:44;;;;;;;2.40;1.23;;;;;;;;;;5013494;28;20152;-67
2022/09/09 12:24:11;;;;;;;3.93;1.53;;;;;;;;;;5013144;28;20238;-65
2022/09/09 12:26:41;;;;;;;3.57;1.33;;;;;;;;;;5014089;28;20227;-66
2022/09/09 12:29:20;;;;;;;2.83;1.47;;;;;;;;;;5014828;28;20199;-67
2022/09/09 12:31:56;;;;;;;5.57;1.63;;;;;;;;;;5017237;28;20255;-66
2022/09/09 12:34:31;;;;;;;2.70;1.30;;;;;;;;;;5015528;28;20168;-66
2022/09/09 12:37:02;;;;;;;2.07;1.30;;;;;;;;;;5016850;28;20211;-68
2022/09/09 12:39:28;;;;;;;2.63;1.20;;;;;;;;;;5016884;28;20160;-67
2022/09/09 12:41:57;;;;;;;2.40;1.50;;;;;;;;;;5016537;28;20267;-66
2022/09/09 12:44:23;;;;;;;4.30;1.40;;;;;;;;;;5015303;28;20171;-66
2022/09/09 12:46:50;;;;;;;5.13;1.93;;;;;;;;;;5015548;28;20639;-67
2022/09/09 12:49:36;;;;;;;5.10;1.77;;;;;;;;;;5015198;28;20271;-67
2022/09/09 12:52:07;;;;;;;3.53;1.70;;;;;;;;;;5015160;28;20222;-67
2022/09/09 12:54:35;;;;;;;3.07;1.40;;;;;;;;;;5016512;28;20212;-67
2022/09/09 12:57:02;;;;;;;1.90;1.30;;;;;;;;;;5016169;28;20211;-66
2022/09/09 12:59:35;;;;;;;4.10;1.50;;;;;;;;;;5016569;28;20643;-69
2022/09/09 13:02:01;;;;;;;5.67;1.80;;;;;;;;;;5016544;28;20172;-66
2022/09/09 13:04:28;;;;;;;4.33;1.93;;;;;;;;;;5016411;28;20180;-67
2022/09/09 13:06:55;;;;;;;4.17;1.80;;;;;;;;;;5016291;28;20199;-66
2022/09/09 13:09:21;;;;;;;3.47;1.63;;;;;;;;;;5015077;28;20188;-66
2022/09/09 13:11:53;;;;;;;4.33;1.70;;;;;;;;;;5016093;28;20180;-66
2022/09/09 13:14:22;;;;;;;3.87;1.50;;;;;;;;;;5016092;28;20219;-68
2022/09/09 13:16:58;;;;;;;2.60;1.50;;;;;;;;;;5014536;28;20223;-66
2022/09/09 13:19:28;;;;;;;2.53;1.53;;;;;;;;;;5015967;28;20178;-66
2022/09/09 13:21:55;;;;;;;2.93;1.20;;;;;;;;;;5015908;28;20231;-67
2022/09/09 13:24:29;;;;;;;3.60;1.30;;;;;;;;;;5014563;28;20186;-66
2022/09/09 13:26:56;;;;;;;3.23;1.50;;;;;;;;;;5014525;28;20199;-67
2022/09/09 13:29:22;;;;;;;3.57;1.50;;;;;;;;;;5015730;28;20667;-67
2022/09/09 13:31:52;;;;;;;3.13;1.60;;;;;;;;;;5015752;28;20186;-67
2022/09/09 13:34:32;;;;;;;1.70;1.50;;;;;;;;;;5014299;28;20191;-67
2022/09/09 13:37:02;;;;;;;6.77;1.80;;;;;;;;;;5014136;28;20230;-68
2022/09/09 13:39:28;;;;;;;4.20;1.60;;;;;;;;;;5014886;28;20183;-67
2022/09/09 13:41:54;;;;;;;4.00;2.00;;;;;;;;;;5015603;28;20176;-67
2022/09/09 13:44:29;;;;;;;6.03;1.70;;;;;;;;;;5015585;28;20176;-67
2022/09/09 13:47:01;;;;;;;3.03;1.80;;;;;;;;;;5014462;28;20199;-67
2022/09/09 13:49:28;;;;;;;3.03;1.57;;;;;;;;;;5014174;28;20561;-67
2022/09/09 13:52:04;;;;;;;4.87;1.70;;;;;;;;;;5015263;28;20183;-67
2022/09/09 13:54:30;;;;;;;1.90;1.40;;;;;;;;;;5015639;28;20167;-67
2022/09/09 13:56:56;;;;;;;2.57;1.40;;;;;;;;;;5015240;28;20204;-67
2022/09/09 13:59:24;;;;;;;3.33;1.77;;;;;;;;;;5015335;28;20178;-67
2022/09/09 14:01:52;;;;;;;3.87;1.47;;;;;;;;;;5015337;28;20172;-67
2022/09/09 14:04:18;;;;;;;2.97;1.57;;;;;;;;;;5015099;28;20547;-67
2022/09/09 14:06:44;;;;;;;4.33;1.67;;;;;;;;;;5015046;28;20211;-67
2022/09/09 14:09:15;;;;;;;5.40;1.60;;;;;;;;;;5014498;28;20184;-67
2022/09/09 14:11:41;;;;;;;3.00;1.63;;;;;;;;;;5016096;28;20549;-67
2022/09/09 14:14:07;;;;;;;4.77;2.00;;;;;;;;;;5014522;28;20532;-66
2022/09/09 14:16:33;;;;;;;3.97;1.83;;;;;;;;;;5015264;28;20238;-67
2022/09/09 14:18:59;;;;;;;3.53;1.70;;;;;;;;;;5015592;28;20633;-67
2022/09/09 14:21:25;;;;;;;3.20;1.77;;;;;;;;;;5016021;28;20568;-67
2022/09/09 14:23:52;;;;;;;3.73;1.60;;;;;;;;;;5014032;28;20183;-66
2022/09/09 14:26:20;;;;;;;3.40;1.70;;;;;;;;;;5015334;28;20286;-66
2022/09/09 14:28:46;;;;;;;5.43;2.10;;;;;;;;;;5015236;28;20171;-66
2022/09/09 14:31:13;;;;;;;3.87;1.83;;;;;;;;;;5015228;28;20234;-67
2022/09/09 14:33:39;;;;;;;3.50;1.20;;;;;;;;;;5015972;28;20186;-66
2022/09/09 14:36:05;;;;;;;1.80;1.00;;;;;;;;;;5015555;28;20703;-67
2022/09/09 14:38:39;;;;;;;2.13;1.00;;;;;;;;;;5014771;28;20550;-67
2022/09/09 14:41:05;;;;;;;2.10;0.90;;;;;;;;;;5014433;28;20168;-67
2022/09/09 14:43:32;;;;;;;1.60;1.10;;;;;;;;;;5014426;28;20182;-67
2022/09/09 14:45:58;;;;;;;1.57;0.80;;;;;;;;;;5014429;28;20257;-68
2022/09/09 14:48:24;;;;;;;2.17;0.97;;;;;;;;;;5014360;28;20211;-67
2022/09/09 14:50:50;;;;;;;2.33;1.17;;;;;;;;;;5012553;28;20183;-68
2022/09/09 14:53:16;;;;;;;1.67;1.00;;;;;;;;;;5013995;28;20211;-67
2022/09/09 14:55:42;;;;;;;3.03;0.80;;;;;;;;;;5014184;28;20231;-68